sensor_id;sensor_type;location;lat;lon;timestamp;temperature;humidity
11140;DHT22;5624;49.388;11.350;2023-07-13T00:01:48;18.90;90.10
11140;DHT22;5624;49.388;11.350;2023-07-13T00:04:16;18.90;90.40
11140;DHT22;5624;49.388;11.350;2023-07-13T00:06:43;18.80;90.60
11140;DHT22;5624;49.388;11.350;2023-07-13T00:09:11;18.80;91.00
11140;DHT22;5624;49.388;11.350;2023-07-13T00:11:38;18.80;91.30
11140;DHT22;5624;49.388;11.350;2023-07-13T00:14:03;18.80;91.30
11140;DHT22;5624;49.388;11.350;2023-07-13T00:16:29;18.80;91.00
11140;DHT22;5624;49.388;11.350;2023-07-13T00:18:55;18.70;90.80
11140;DHT22;5624;49.388;11.350;2023-07-13T00:21:21;18.60;91.20
11140;DHT22;5624;49.388;11.350;2023-07-13T00:23:46;18.60;90.70
11140;DHT22;5624;49.388;11.350;2023-07-13T00:26:12;18.50;90.70
11140;DHT22;5624;49.388;11.350;2023-07-13T00:28:38;18.40;91.40
11140;DHT22;5624;49.388;11.350;2023-07-13T00:31:05;18.40;91.40
11140;DHT22;5624;49.388;11.350;2023-07-13T00:33:31;18.40;90.90
11140;DHT22;5624;49.388;11.350;2023-07-13T00:35:57;18.40;90.30
11140;DHT22;5624;49.388;11.350;2023-07-13T00:38:23;18.40;89.80
11140;DHT22;5624;49.388;11.350;2023-07-13T00:40:49;18.50;88.80
11140;DHT22;5624;49.388;11.350;2023-07-13T00:43:17;18.60;88.10
11140;DHT22;5624;49.388;11.350;2023-07-13T00:48:10;18.60;88.80
11140;DHT22;5624;49.388;11.350;2023-07-13T00:50:37;18.70;88.50
11140;DHT22;5624;49.388;11.350;2023-07-13T00:53:03;18.70;88.70
11140;DHT22;5624;49.388;11.350;2023-07-13T00:55:29;18.70;89.10
11140;DHT22;5624;49.388;11.350;2023-07-13T00:57:55;18.70;87.50
11140;DHT22;5624;49.388;11.350;2023-07-13T01:00:22;18.70;88.30
11140;DHT22;5624;49.388;11.350;2023-07-13T01:02:48;18.70;87.80
11140;DHT22;5624;49.388;11.350;2023-07-13T01:05:21;18.70;87.10
11140;DHT22;5624;49.388;11.350;2023-07-13T01:07:49;18.70;87.20
11140;DHT22;5624;49.388;11.350;2023-07-13T01:10:16;18.60;86.30
11140;DHT22;5624;49.388;11.350;2023-07-13T01:12:42;18.50;84.80
11140;DHT22;5624;49.388;11.350;2023-07-13T01:15:37;18.50;84.40
11140;DHT22;5624;49.388;11.350;2023-07-13T01:18:06;18.40;84.20
11140;DHT22;5624;49.388;11.350;2023-07-13T01:20:32;18.30;83.60
11140;DHT22;5624;49.388;11.350;2023-07-13T01:23:07;18.30;82.70
11140;DHT22;5624;49.388;11.350;2023-07-13T01:25:35;18.10;82.40
11140;DHT22;5624;49.388;11.350;2023-07-13T01:28:02;18.00;81.90
11140;DHT22;5624;49.388;11.350;2023-07-13T01:30:28;18.00;83.70
11140;DHT22;5624;49.388;11.350;2023-07-13T01:32:54;18.00;82.60
11140;DHT22;5624;49.388;11.350;2023-07-13T01:35:20;17.90;82.50
11140;DHT22;5624;49.388;11.350;2023-07-13T01:37:46;17.90;82.90
11140;DHT22;5624;49.388;11.350;2023-07-13T01:40:12;17.90;83.80
11140;DHT22;5624;49.388;11.350;2023-07-13T01:42:38;18.00;83.50
11140;DHT22;5624;49.388;11.350;2023-07-13T01:45:04;18.00;82.10
11140;DHT22;5624;49.388;11.350;2023-07-13T01:47:30;17.90;82.80
11140;DHT22;5624;49.388;11.350;2023-07-13T01:49:56;17.90;83.10
11140;DHT22;5624;49.388;11.350;2023-07-13T01:52:22;17.90;83.40
11140;DHT22;5624;49.388;11.350;2023-07-13T01:54:47;17.90;82.90
11140;DHT22;5624;49.388;11.350;2023-07-13T01:57:13;17.80;82.50
11140;DHT22;5624;49.388;11.350;2023-07-13T01:59:39;17.70;82.10
11140;DHT22;5624;49.388;11.350;2023-07-13T02:02:04;17.70;82.20
11140;DHT22;5624;49.388;11.350;2023-07-13T02:04:30;17.70;81.70
11140;DHT22;5624;49.388;11.350;2023-07-13T02:06:55;17.60;81.10
11140;DHT22;5624;49.388;11.350;2023-07-13T02:09:21;17.60;81.40
11140;DHT22;5624;49.388;11.350;2023-07-13T02:11:47;17.50;81.50
11140;DHT22;5624;49.388;11.350;2023-07-13T02:14:14;17.40;81.40
11140;DHT22;5624;49.388;11.350;2023-07-13T02:16:41;17.40;81.00
11140;DHT22;5624;49.388;11.350;2023-07-13T02:19:07;17.40;80.60
11140;DHT22;5624;49.388;11.350;2023-07-13T02:21:33;17.40;80.20
11140;DHT22;5624;49.388;11.350;2023-07-13T02:23:58;17.30;79.30
11140;DHT22;5624;49.388;11.350;2023-07-13T02:26:25;17.30;79.90
11140;DHT22;5624;49.388;11.350;2023-07-13T02:28:51;17.30;80.20
11140;DHT22;5624;49.388;11.350;2023-07-13T02:31:17;17.40;79.30
11140;DHT22;5624;49.388;11.350;2023-07-13T02:33:42;17.20;80.10
11140;DHT22;5624;49.388;11.350;2023-07-13T02:36:09;17.10;80.40
11140;DHT22;5624;49.388;11.350;2023-07-13T02:38:35;17.10;80.40
11140;DHT22;5624;49.388;11.350;2023-07-13T02:41:05;17.00;79.60
11140;DHT22;5624;49.388;11.350;2023-07-13T02:43:31;17.00;80.60
11140;DHT22;5624;49.388;11.350;2023-07-13T02:45:59;16.90;80.30
11140;DHT22;5624;49.388;11.350;2023-07-13T02:48:29;16.90;80.70
11140;DHT22;5624;49.388;11.350;2023-07-13T02:50:55;16.80;80.60
11140;DHT22;5624;49.388;11.350;2023-07-13T02:53:21;16.80;80.50
11140;DHT22;5624;49.388;11.350;2023-07-13T02:55:46;16.80;80.60
11140;DHT22;5624;49.388;11.350;2023-07-13T02:58:13;16.70;80.40
11140;DHT22;5624;49.388;11.350;2023-07-13T03:00:46;16.70;80.70
11140;DHT22;5624;49.388;11.350;2023-07-13T03:03:12;16.70;79.50
11140;DHT22;5624;49.388;11.350;2023-07-13T03:05:41;16.70;79.80
11140;DHT22;5624;49.388;11.350;2023-07-13T03:08:07;16.70;79.70
11140;DHT22;5624;49.388;11.350;2023-07-13T03:10:33;16.70;79.30
11140;DHT22;5624;49.388;11.350;2023-07-13T03:12:59;16.60;77.70
11140;DHT22;5624;49.388;11.350;2023-07-13T03:15:24;16.60;77.70
11140;DHT22;5624;49.388;11.350;2023-07-13T03:17:50;16.60;77.90
11140;DHT22;5624;49.388;11.350;2023-07-13T03:20:15;16.60;78.00
11140;DHT22;5624;49.388;11.350;2023-07-13T03:22:42;16.60;78.10
11140;DHT22;5624;49.388;11.350;2023-07-13T03:25:08;16.60;77.30
11140;DHT22;5624;49.388;11.350;2023-07-13T03:27:33;16.50;77.80
11140;DHT22;5624;49.388;11.350;2023-07-13T03:29:59;16.50;77.70
11140;DHT22;5624;49.388;11.350;2023-07-13T03:32:24;16.50;77.30
11140;DHT22;5624;49.388;11.350;2023-07-13T03:34:50;16.50;77.40
11140;DHT22;5624;49.388;11.350;2023-07-13T03:37:16;16.50;78.30
11140;DHT22;5624;49.388;11.350;2023-07-13T03:39:41;16.50;78.00
11140;DHT22;5624;49.388;11.350;2023-07-13T03:42:07;16.40;78.30
11140;DHT22;5624;49.388;11.350;2023-07-13T03:44:35;16.40;77.60
11140;DHT22;5624;49.388;11.350;2023-07-13T03:47:00;16.40;78.00
11140;DHT22;5624;49.388;11.350;2023-07-13T03:49:26;16.50;77.90
11140;DHT22;5624;49.388;11.350;2023-07-13T03:51:52;16.40;77.80
11140;DHT22;5624;49.388;11.350;2023-07-13T03:54:17;16.50;77.30
11140;DHT22;5624;49.388;11.350;2023-07-13T03:56:43;16.50;77.80
11140;DHT22;5624;49.388;11.350;2023-07-13T03:59:08;16.50;77.70
11140;DHT22;5624;49.388;11.350;2023-07-13T04:01:34;16.50;78.40
11140;DHT22;5624;49.388;11.350;2023-07-13T04:04:00;16.60;78.50
11140;DHT22;5624;49.388;11.350;2023-07-13T04:06:28;16.70;77.80
11140;DHT22;5624;49.388;11.350;2023-07-13T04:08:56;16.70;77.60
11140;DHT22;5624;49.388;11.350;2023-07-13T04:11:24;16.80;76.80
11140;DHT22;5624;49.388;11.350;2023-07-13T04:13:50;16.90;76.30
11140;DHT22;5624;49.388;11.350;2023-07-13T04:16:17;16.90;76.00
11140;DHT22;5624;49.388;11.350;2023-07-13T04:18:43;17.00;75.80
11140;DHT22;5624;49.388;11.350;2023-07-13T04:21:09;17.00;74.80
11140;DHT22;5624;49.388;11.350;2023-07-13T04:23:36;17.10;74.10
11140;DHT22;5624;49.388;11.350;2023-07-13T04:26:02;17.20;72.50
11140;DHT22;5624;49.388;11.350;2023-07-13T04:28:27;17.20;73.20
11140;DHT22;5624;49.388;11.350;2023-07-13T04:30:54;17.30;71.90
11140;DHT22;5624;49.388;11.350;2023-07-13T04:33:20;17.30;71.70
11140;DHT22;5624;49.388;11.350;2023-07-13T04:35:48;17.40;72.20
11140;DHT22;5624;49.388;11.350;2023-07-13T04:38:14;17.40;72.10
11140;DHT22;5624;49.388;11.350;2023-07-13T04:40:44;17.40;72.00
11140;DHT22;5624;49.388;11.350;2023-07-13T04:43:10;17.40;71.70
11140;DHT22;5624;49.388;11.350;2023-07-13T04:45:36;17.40;71.60
11140;DHT22;5624;49.388;11.350;2023-07-13T04:48:02;17.40;71.80
11140;DHT22;5624;49.388;11.350;2023-07-13T04:50:28;17.30;71.80
11140;DHT22;5624;49.388;11.350;2023-07-13T04:52:53;17.20;72.00
11140;DHT22;5624;49.388;11.350;2023-07-13T04:55:19;17.20;72.20
11140;DHT22;5624;49.388;11.350;2023-07-13T04:57:45;17.30;71.90
11140;DHT22;5624;49.388;11.350;2023-07-13T05:00:12;17.40;70.60
11140;DHT22;5624;49.388;11.350;2023-07-13T05:02:39;17.40;71.70
11140;DHT22;5624;49.388;11.350;2023-07-13T05:05:06;17.60;71.10
11140;DHT22;5624;49.388;11.350;2023-07-13T05:07:32;18.00;69.80
11140;DHT22;5624;49.388;11.350;2023-07-13T05:09:59;18.30;68.40
11140;DHT22;5624;49.388;11.350;2023-07-13T05:12:25;18.70;68.00
11140;DHT22;5624;49.388;11.350;2023-07-13T05:14:51;19.00;65.80
11140;DHT22;5624;49.388;11.350;2023-07-13T05:17:16;19.20;65.50
11140;DHT22;5624;49.388;11.350;2023-07-13T05:19:42;19.30;64.30
11140;DHT22;5624;49.388;11.350;2023-07-13T05:22:07;19.50;64.70
11140;DHT22;5624;49.388;11.350;2023-07-13T05:24:33;19.60;63.50
11140;DHT22;5624;49.388;11.350;2023-07-13T05:26:59;19.50;64.90
11140;DHT22;5624;49.388;11.350;2023-07-13T05:29:24;19.50;64.50
11140;DHT22;5624;49.388;11.350;2023-07-13T05:31:50;19.40;63.70
11140;DHT22;5624;49.388;11.350;2023-07-13T05:34:15;19.40;62.80
11140;DHT22;5624;49.388;11.350;2023-07-13T05:36:41;19.40;63.10
11140;DHT22;5624;49.388;11.350;2023-07-13T05:39:07;19.60;61.90
11140;DHT22;5624;49.388;11.350;2023-07-13T05:41:33;19.60;61.90
11140;DHT22;5624;49.388;11.350;2023-07-13T05:43:58;19.70;59.90
11140;DHT22;5624;49.388;11.350;2023-07-13T05:46:24;19.90;59.50
11140;DHT22;5624;49.388;11.350;2023-07-13T05:48:50;19.90;59.90
11140;DHT22;5624;49.388;11.350;2023-07-13T05:51:16;20.20;58.20
11140;DHT22;5624;49.388;11.350;2023-07-13T05:53:41;20.50;57.70
11140;DHT22;5624;49.388;11.350;2023-07-13T05:56:07;20.60;59.10
11140;DHT22;5624;49.388;11.350;2023-07-13T05:58:32;20.80;57.50
11140;DHT22;5624;49.388;11.350;2023-07-13T06:01:06;20.80;56.60
11140;DHT22;5624;49.388;11.350;2023-07-13T06:03:33;20.90;55.50
11140;DHT22;5624;49.388;11.350;2023-07-13T06:05:58;21.20;55.80
11140;DHT22;5624;49.388;11.350;2023-07-13T06:08:28;21.40;53.70
11140;DHT22;5624;49.388;11.350;2023-07-13T06:10:53;21.70;53.30
11140;DHT22;5624;49.388;11.350;2023-07-13T06:13:19;22.00;52.10
11140;DHT22;5624;49.388;11.350;2023-07-13T06:15:49;22.10;50.40
11140;DHT22;5624;49.388;11.350;2023-07-13T06:18:15;22.30;50.40
11140;DHT22;5624;49.388;11.350;2023-07-13T06:20:41;22.80;50.10
11140;DHT22;5624;49.388;11.350;2023-07-13T06:23:06;23.10;50.20
11140;DHT22;5624;49.388;11.350;2023-07-13T06:25:32;23.90;49.00
11140;DHT22;5624;49.388;11.350;2023-07-13T06:27:57;24.70;45.30
11140;DHT22;5624;49.388;11.350;2023-07-13T06:30:23;25.70;43.80
11140;DHT22;5624;49.388;11.350;2023-07-13T06:32:49;26.20;42.30
11140;DHT22;5624;49.388;11.350;2023-07-13T06:35:15;26.40;40.70
11140;DHT22;5624;49.388;11.350;2023-07-13T06:37:40;26.00;41.00
11140;DHT22;5624;49.388;11.350;2023-07-13T06:40:06;25.30;43.50
11140;DHT22;5624;49.388;11.350;2023-07-13T06:42:32;24.70;43.40
11140;DHT22;5624;49.388;11.350;2023-07-13T06:44:58;24.70;44.10
11140;DHT22;5624;49.388;11.350;2023-07-13T06:47:23;24.90;43.80
11140;DHT22;5624;49.388;11.350;2023-07-13T06:49:49;25.90;41.80
11140;DHT22;5624;49.388;11.350;2023-07-13T06:52:15;26.00;40.50
11140;DHT22;5624;49.388;11.350;2023-07-13T06:54:40;25.30;41.10
11140;DHT22;5624;49.388;11.350;2023-07-13T06:57:06;24.90;42.30
11140;DHT22;5624;49.388;11.350;2023-07-13T06:59:32;25.20;44.30
11140;DHT22;5624;49.388;11.350;2023-07-13T07:01:58;25.90;43.00
11140;DHT22;5624;49.388;11.350;2023-07-13T07:04:23;26.10;41.00
11140;DHT22;5624;49.388;11.350;2023-07-13T07:06:49;26.50;41.60
11140;DHT22;5624;49.388;11.350;2023-07-13T07:09:15;26.40;40.20
11140;DHT22;5624;49.388;11.350;2023-07-13T07:11:42;25.90;41.40
11140;DHT22;5624;49.388;11.350;2023-07-13T07:14:07;25.30;41.20
11140;DHT22;5624;49.388;11.350;2023-07-13T07:16:33;25.00;42.00
11140;DHT22;5624;49.388;11.350;2023-07-13T07:18:59;25.00;42.50
11140;DHT22;5624;49.388;11.350;2023-07-13T07:21:24;24.80;43.30
11140;DHT22;5624;49.388;11.350;2023-07-13T07:23:51;24.40;42.90
11140;DHT22;5624;49.388;11.350;2023-07-13T07:26:17;24.10;44.40
11140;DHT22;5624;49.388;11.350;2023-07-13T07:28:43;23.70;45.10
11140;DHT22;5624;49.388;11.350;2023-07-13T07:31:09;23.30;45.40
11140;DHT22;5624;49.388;11.350;2023-07-13T07:33:35;23.20;47.10
11140;DHT22;5624;49.388;11.350;2023-07-13T07:36:01;24.20;45.90
11140;DHT22;5624;49.388;11.350;2023-07-13T07:38:27;24.70;44.80
11140;DHT22;5624;49.388;11.350;2023-07-13T07:40:53;24.60;44.00
11140;DHT22;5624;49.388;11.350;2023-07-13T07:43:19;25.00;43.50
11140;DHT22;5624;49.388;11.350;2023-07-13T07:45:45;26.20;43.60
11140;DHT22;5624;49.388;11.350;2023-07-13T07:48:11;27.40;39.20
11140;DHT22;5624;49.388;11.350;2023-07-13T07:50:37;28.40;37.30
11140;DHT22;5624;49.388;11.350;2023-07-13T07:53:05;29.00;37.60
11140;DHT22;5624;49.388;11.350;2023-07-13T07:55:33;29.20;37.00
11140;DHT22;5624;49.388;11.350;2023-07-13T07:58:00;28.70;35.40
11140;DHT22;5624;49.388;11.350;2023-07-13T08:00:26;28.10;37.50
11140;DHT22;5624;49.388;11.350;2023-07-13T08:02:53;27.60;37.90
11140;DHT22;5624;49.388;11.350;2023-07-13T08:05:19;27.00;39.40
11140;DHT22;5624;49.388;11.350;2023-07-13T08:07:44;26.80;39.60
11140;DHT22;5624;49.388;11.350;2023-07-13T08:10:10;26.50;40.20
11140;DHT22;5624;49.388;11.350;2023-07-13T08:12:37;26.40;40.10
11140;DHT22;5624;49.388;11.350;2023-07-13T08:15:04;27.50;39.30
11140;DHT22;5624;49.388;11.350;2023-07-13T08:17:30;28.40;37.60
11140;DHT22;5624;49.388;11.350;2023-07-13T08:19:56;29.50;35.60
11140;DHT22;5624;49.388;11.350;2023-07-13T08:22:22;29.90;34.40
11140;DHT22;5624;49.388;11.350;2023-07-13T08:24:47;30.30;33.50
11140;DHT22;5624;49.388;11.350;2023-07-13T08:27:21;30.80;33.70
11140;DHT22;5624;49.388;11.350;2023-07-13T08:29:48;30.70;33.10
11140;DHT22;5624;49.388;11.350;2023-07-13T08:32:13;30.40;32.60
11140;DHT22;5624;49.388;11.350;2023-07-13T08:34:39;30.50;33.80
11140;DHT22;5624;49.388;11.350;2023-07-13T08:37:06;30.40;34.30
11140;DHT22;5624;49.388;11.350;2023-07-13T08:39:32;30.60;30.70
11140;DHT22;5624;49.388;11.350;2023-07-13T08:42:44;30.50;32.90
11140;DHT22;5624;49.388;11.350;2023-07-13T08:50:31;30.80;30.60
11140;DHT22;5624;49.388;11.350;2023-07-13T08:53:00;30.80;30.00
11140;DHT22;5624;49.388;11.350;2023-07-13T08:55:30;31.00;30.60
11140;DHT22;5624;49.388;11.350;2023-07-13T08:58:03;31.10;27.30
11140;DHT22;5624;49.388;11.350;2023-07-13T09:01:02;31.30;27.70
11140;DHT22;5624;49.388;11.350;2023-07-13T09:03:27;31.10;28.70
11140;DHT22;5624;49.388;11.350;2023-07-13T09:05:59;30.70;29.70
11140;DHT22;5624;49.388;11.350;2023-07-13T09:08:44;30.40;28.20
11140;DHT22;5624;49.388;11.350;2023-07-13T09:14:06;29.90;30.60
11140;DHT22;5624;49.388;11.350;2023-07-13T09:16:36;29.50;28.90
11140;DHT22;5624;49.388;11.350;2023-07-13T09:19:06;29.40;28.70
11140;DHT22;5624;49.388;11.350;2023-07-13T09:21:39;29.50;31.10
11140;DHT22;5624;49.388;11.350;2023-07-13T09:27:14;28.70;27.50
11140;DHT22;5624;49.388;11.350;2023-07-13T09:29:45;28.80;30.40
11140;DHT22;5624;49.388;11.350;2023-07-13T09:32:18;29.10;27.10
11140;DHT22;5624;49.388;11.350;2023-07-13T09:34:50;29.20;28.60
11140;DHT22;5624;49.388;11.350;2023-07-13T09:37:16;28.80;28.90
11140;DHT22;5624;49.388;11.350;2023-07-13T09:39:42;28.50;29.30
11140;DHT22;5624;49.388;11.350;2023-07-13T09:42:19;28.50;29.80
11140;DHT22;5624;49.388;11.350;2023-07-13T09:44:59;28.30;28.60
11140;DHT22;5624;49.388;11.350;2023-07-13T09:47:27;28.20;28.00
11140;DHT22;5624;49.388;11.350;2023-07-13T09:50:02;27.90;29.10
11140;DHT22;5624;49.388;11.350;2023-07-13T09:52:45;27.60;30.40
11140;DHT22;5624;49.388;11.350;2023-07-13T09:55:36;27.20;30.70
11140;DHT22;5624;49.388;11.350;2023-07-13T09:58:25;27.40;31.30
11140;DHT22;5624;49.388;11.350;2023-07-13T10:01:01;27.90;30.60
11140;DHT22;5624;49.388;11.350;2023-07-13T10:03:35;28.40;28.80
11140;DHT22;5624;49.388;11.350;2023-07-13T10:06:14;28.60;29.40
11140;DHT22;5624;49.388;11.350;2023-07-13T10:08:40;29.20;30.00
11140;DHT22;5624;49.388;11.350;2023-07-13T10:11:21;29.70;29.30
11140;DHT22;5624;49.388;11.350;2023-07-13T10:13:53;30.00;27.60
11140;DHT22;5624;49.388;11.350;2023-07-13T10:16:24;30.20;31.10
11140;DHT22;5624;49.388;11.350;2023-07-13T10:18:57;30.00;29.60
11140;DHT22;5624;49.388;11.350;2023-07-13T10:21:28;30.10;28.20
11140;DHT22;5624;49.388;11.350;2023-07-13T10:24:03;30.50;27.50
11140;DHT22;5624;49.388;11.350;2023-07-13T10:26:33;30.30;28.20
11140;DHT22;5624;49.388;11.350;2023-07-13T10:29:07;30.30;28.40
11140;DHT22;5624;49.388;11.350;2023-07-13T10:31:40;30.40;26.40
11140;DHT22;5624;49.388;11.350;2023-07-13T10:34:10;30.70;25.80
11140;DHT22;5624;49.388;11.350;2023-07-13T10:36:47;30.50;26.40
11140;DHT22;5624;49.388;11.350;2023-07-13T10:39:23;30.20;29.40
11140;DHT22;5624;49.388;11.350;2023-07-13T10:41:55;30.20;26.60
11140;DHT22;5624;49.388;11.350;2023-07-13T10:44:26;29.70;28.90
11140;DHT22;5624;49.388;11.350;2023-07-13T10:47:15;29.90;27.40
11140;DHT22;5624;49.388;11.350;2023-07-13T10:49:41;29.90;25.90
11140;DHT22;5624;49.388;11.350;2023-07-13T10:58:02;29.90;26.80
11140;DHT22;5624;49.388;11.350;2023-07-13T11:00:31;30.00;27.70
11140;DHT22;5624;49.388;11.350;2023-07-13T11:03:00;29.80;25.80
11140;DHT22;5624;49.388;11.350;2023-07-13T11:05:30;30.00;27.50
11140;DHT22;5624;49.388;11.350;2023-07-13T11:10:55;30.10;27.70
11140;DHT22;5624;49.388;11.350;2023-07-13T11:16:14;30.20;25.80
11140;DHT22;5624;49.388;11.350;2023-07-13T11:21:28;29.10;27.80
11140;DHT22;5624;49.388;11.350;2023-07-13T11:24:15;29.70;29.10
11140;DHT22;5624;49.388;11.350;2023-07-13T11:31:58;30.60;25.80
11140;DHT22;5624;49.388;11.350;2023-07-13T11:34:31;30.70;27.30
11140;DHT22;5624;49.388;11.350;2023-07-13T11:36:58;30.90;27.80
11140;DHT22;5624;49.388;11.350;2023-07-13T11:39:34;30.30;27.00
11140;DHT22;5624;49.388;11.350;2023-07-13T11:42:05;29.90;27.50
11140;DHT22;5624;49.388;11.350;2023-07-13T11:44:33;29.10;26.50
11140;DHT22;5624;49.388;11.350;2023-07-13T11:47:11;28.80;28.00
11140;DHT22;5624;49.388;11.350;2023-07-13T11:49:45;28.90;30.10
11140;DHT22;5624;49.388;11.350;2023-07-13T11:52:21;29.30;28.50
11140;DHT22;5624;49.388;11.350;2023-07-13T11:54:51;30.00;27.20
11140;DHT22;5624;49.388;11.350;2023-07-13T11:57:30;30.30;28.40
11140;DHT22;5624;49.388;11.350;2023-07-13T12:00:03;30.70;26.50
11140;DHT22;5624;49.388;11.350;2023-07-13T12:02:43;31.10;27.80
11140;DHT22;5624;49.388;11.350;2023-07-13T12:05:13;31.30;25.60
11140;DHT22;5624;49.388;11.350;2023-07-13T12:07:39;31.50;28.30
11140;DHT22;5624;49.388;11.350;2023-07-13T12:12:36;30.30;26.50
11140;DHT22;5624;49.388;11.350;2023-07-13T12:15:06;29.60;27.20
11140;DHT22;5624;49.388;11.350;2023-07-13T12:17:34;29.20;27.50
11140;DHT22;5624;49.388;11.350;2023-07-13T12:20:03;28.80;28.50
11140;DHT22;5624;49.388;11.350;2023-07-13T12:22:35;28.80;26.70
11140;DHT22;5624;49.388;11.350;2023-07-13T12:25:01;28.50;29.10
11140;DHT22;5624;49.388;11.350;2023-07-13T12:27:28;28.10;28.60
11140;DHT22;5624;49.388;11.350;2023-07-13T12:29:59;28.20;30.00
11140;DHT22;5624;49.388;11.350;2023-07-13T12:32:26;28.10;30.20
11140;DHT22;5624;49.388;11.350;2023-07-13T12:35:17;28.40;29.10
11140;DHT22;5624;49.388;11.350;2023-07-13T12:37:46;28.30;29.60
11140;DHT22;5624;49.388;11.350;2023-07-13T12:40:19;27.90;29.50
11140;DHT22;5624;49.388;11.350;2023-07-13T12:42:49;28.10;30.80
11140;DHT22;5624;49.388;11.350;2023-07-13T12:45:19;28.50;29.90
11140;DHT22;5624;49.388;11.350;2023-07-13T12:47:48;28.50;28.50
11140;DHT22;5624;49.388;11.350;2023-07-13T12:50:17;28.40;27.80
11140;DHT22;5624;49.388;11.350;2023-07-13T12:52:44;28.20;27.90
11140;DHT22;5624;49.388;11.350;2023-07-13T12:55:18;27.70;28.60
11140;DHT22;5624;49.388;11.350;2023-07-13T13:00:31;26.80;30.80
11140;DHT22;5624;49.388;11.350;2023-07-13T13:03:33;26.70;31.80
11140;DHT22;5624;49.388;11.350;2023-07-13T13:06:21;26.90;30.70
11140;DHT22;5624;49.388;11.350;2023-07-13T13:08:54;26.90;30.30
11140;DHT22;5624;49.388;11.350;2023-07-13T13:11:22;26.60;32.10
11140;DHT22;5624;49.388;11.350;2023-07-13T13:13:48;26.50;32.70
11140;DHT22;5624;49.388;11.350;2023-07-13T13:16:24;26.40;33.50
11140;DHT22;5624;49.388;11.350;2023-07-13T13:18:57;26.30;33.80
11140;DHT22;5624;49.388;11.350;2023-07-13T13:21:24;26.40;32.60
11140;DHT22;5624;49.388;11.350;2023-07-13T13:23:51;26.40;32.70
11140;DHT22;5624;49.388;11.350;2023-07-13T13:26:19;26.60;32.70
11140;DHT22;5624;49.388;11.350;2023-07-13T13:28:45;26.60;32.60
11140;DHT22;5624;49.388;11.350;2023-07-13T13:31:13;26.90;33.40
11140;DHT22;5624;49.388;11.350;2023-07-13T13:33:45;27.10;30.90
11140;DHT22;5624;49.388;11.350;2023-07-13T13:36:19;27.30;31.00
11140;DHT22;5624;49.388;11.350;2023-07-13T13:38:46;27.40;31.20
11140;DHT22;5624;49.388;11.350;2023-07-13T13:41:15;27.50;29.90
11140;DHT22;5624;49.388;11.350;2023-07-13T13:43:42;27.30;31.00
11140;DHT22;5624;49.388;11.350;2023-07-13T13:46:20;27.00;30.80
11140;DHT22;5624;49.388;11.350;2023-07-13T13:48:48;26.80;32.10
11140;DHT22;5624;49.388;11.350;2023-07-13T13:51:15;26.80;32.30
11140;DHT22;5624;49.388;11.350;2023-07-13T13:53:41;26.70;31.70
11140;DHT22;5624;49.388;11.350;2023-07-13T13:56:08;26.70;33.60
11140;DHT22;5624;49.388;11.350;2023-07-13T13:58:34;26.70;32.10
11140;DHT22;5624;49.388;11.350;2023-07-13T14:01:00;26.90;32.70
11140;DHT22;5624;49.388;11.350;2023-07-13T14:03:26;26.90;33.10
11140;DHT22;5624;49.388;11.350;2023-07-13T14:05:53;26.70;32.00
11140;DHT22;5624;49.388;11.350;2023-07-13T14:08:20;26.60;31.80
11140;DHT22;5624;49.388;11.350;2023-07-13T14:10:48;26.50;32.30
11140;DHT22;5624;49.388;11.350;2023-07-13T14:13:32;26.40;32.40
11140;DHT22;5624;49.388;11.350;2023-07-13T14:15:59;26.40;34.70
11140;DHT22;5624;49.388;11.350;2023-07-13T14:18:25;26.20;36.00
11140;DHT22;5624;49.388;11.350;2023-07-13T14:20:51;26.00;34.90
11140;DHT22;5624;49.388;11.350;2023-07-13T14:23:17;25.60;34.20
11140;DHT22;5624;49.388;11.350;2023-07-13T14:25:44;25.30;35.20
11140;DHT22;5624;49.388;11.350;2023-07-13T14:28:25;25.30;35.30
11140;DHT22;5624;49.388;11.350;2023-07-13T14:30:51;25.50;35.10
11140;DHT22;5624;49.388;11.350;2023-07-13T14:33:17;25.80;34.80
11140;DHT22;5624;49.388;11.350;2023-07-13T14:35:43;26.10;36.00
11140;DHT22;5624;49.388;11.350;2023-07-13T14:38:15;26.10;34.80
11140;DHT22;5624;49.388;11.350;2023-07-13T14:40:42;26.00;33.90
11140;DHT22;5624;49.388;11.350;2023-07-13T14:43:12;25.80;32.50
11140;DHT22;5624;49.388;11.350;2023-07-13T14:45:41;25.70;34.70
11140;DHT22;5624;49.388;11.350;2023-07-13T14:50:40;25.40;34.40
11140;DHT22;5624;49.388;11.350;2023-07-13T14:53:10;25.30;35.20
11140;DHT22;5624;49.388;11.350;2023-07-13T14:55:36;25.30;35.40
11140;DHT22;5624;49.388;11.350;2023-07-13T14:58:02;25.30;33.20
11140;DHT22;5624;49.388;11.350;2023-07-13T15:00:28;25.30;35.40
11140;DHT22;5624;49.388;11.350;2023-07-13T15:02:56;25.20;34.20
11140;DHT22;5624;49.388;11.350;2023-07-13T15:05:29;25.20;35.70
11140;DHT22;5624;49.388;11.350;2023-07-13T15:08:00;25.20;33.80
11140;DHT22;5624;49.388;11.350;2023-07-13T15:10:28;25.20;34.40
11140;DHT22;5624;49.388;11.350;2023-07-13T15:13:21;25.10;35.20
11140;DHT22;5624;49.388;11.350;2023-07-13T15:15:51;25.00;35.30
11140;DHT22;5624;49.388;11.350;2023-07-13T15:18:22;24.90;34.70
11140;DHT22;5624;49.388;11.350;2023-07-13T15:20:49;24.70;35.90
11140;DHT22;5624;49.388;11.350;2023-07-13T15:23:16;24.60;35.20
11140;DHT22;5624;49.388;11.350;2023-07-13T15:25:43;24.60;35.90
11140;DHT22;5624;49.388;11.350;2023-07-13T15:28:11;24.50;38.20
11140;DHT22;5624;49.388;11.350;2023-07-13T15:30:44;24.60;35.70
11140;DHT22;5624;49.388;11.350;2023-07-13T15:33:18;24.70;36.10
11140;DHT22;5624;49.388;11.350;2023-07-13T15:35:44;24.90;35.50
11140;DHT22;5624;49.388;11.350;2023-07-13T15:38:17;25.10;35.50
11140;DHT22;5624;49.388;11.350;2023-07-13T15:40:43;25.10;35.10
11140;DHT22;5624;49.388;11.350;2023-07-13T15:43:11;25.10;34.50
11140;DHT22;5624;49.388;11.350;2023-07-13T15:45:37;25.10;35.60
11140;DHT22;5624;49.388;11.350;2023-07-13T15:48:17;25.30;33.10
11140;DHT22;5624;49.388;11.350;2023-07-13T15:50:49;25.30;33.90
11140;DHT22;5624;49.388;11.350;2023-07-13T15:53:22;25.40;33.90
11140;DHT22;5624;49.388;11.350;2023-07-13T15:55:48;25.40;33.50
11140;DHT22;5624;49.388;11.350;2023-07-13T15:58:15;25.50;33.90
11140;DHT22;5624;49.388;11.350;2023-07-13T16:00:40;25.60;33.30
11140;DHT22;5624;49.388;11.350;2023-07-13T16:03:07;25.50;33.70
11140;DHT22;5624;49.388;11.350;2023-07-13T16:05:33;25.20;33.30
11140;DHT22;5624;49.388;11.350;2023-07-13T16:07:59;25.00;35.50
11140;DHT22;5624;49.388;11.350;2023-07-13T16:12:57;24.70;35.00
11140;DHT22;5624;49.388;11.350;2023-07-13T16:15:24;24.70;34.90
11140;DHT22;5624;49.388;11.350;2023-07-13T16:17:49;24.70;35.70
11140;DHT22;5624;49.388;11.350;2023-07-13T16:20:17;24.70;35.70
11140;DHT22;5624;49.388;11.350;2023-07-13T16:22:47;24.60;36.00